sensor_id;sensor_type;location;lat;lon;timestamp;P1;durP1;ratioP1;P2;durP2;ratioP2
64467;SDS011;50853;46.836;16.820;2024-02-21T00:00:22;3.28;;;1.92;;
64467;SDS011;50853;46.836;16.820;2024-02-21T00:02:47;3.83;;;2.15;;
64467;SDS011;50853;46.836;16.820;2024-02-21T00:05:13;3.33;;;2.10;;
64467;SDS011;50853;46.836;16.820;2024-02-21T00:07:39;3.13;;;1.90;;
64467;SDS011;50853;46.836;16.820;2024-02-21T00:10:05;2.85;;;2.03;;
64467;SDS011;50853;46.836;16.820;2024-02-21T00:12:31;3.00;;;1.93;;
64467;SDS011;50853;46.836;16.820;2024-02-21T00:14:57;2.60;;;1.70;;
64467;SDS011;50853;46.836;16.820;2024-02-21T00:17:23;2.60;;;1.73;;
64467;SDS011;50853;46.836;16.820;2024-02-21T00:19:48;3.80;;;2.40;;
64467;SDS011;50853;46.836;16.820;2024-02-21T00:22:14;3.22;;;2.20;;
64467;SDS011;50853;46.836;16.820;2024-02-21T00:24:40;3.85;;;2.15;;
64467;SDS011;50853;46.836;16.820;2024-02-21T00:27:06;2.80;;;1.97;;
64467;SDS011;50853;46.836;16.820;2024-02-21T00:29:32;3.13;;;2.03;;
64467;SDS011;50853;46.836;16.820;2024-02-21T00:31:59;2.97;;;2.00;;
64467;SDS011;50853;46.836;16.820;2024-02-21T00:34:25;2.58;;;1.70;;
64467;SDS011;50853;46.836;16.820;2024-02-21T00:36:51;3.03;;;1.85;;
64467;SDS011;50853;46.836;16.820;2024-02-21T00:39:16;3.42;;;2.10;;
64467;SDS011;50853;46.836;16.820;2024-02-21T00:41:42;3.05;;;1.80;;
64467;SDS011;50853;46.836;16.820;2024-02-21T00:44:08;3.30;;;2.05;;
64467;SDS011;50853;46.836;16.820;2024-02-21T00:46:35;2.58;;;2.00;;
64467;SDS011;50853;46.836;16.820;2024-02-21T00:49:03;3.65;;;2.25;;
64467;SDS011;50853;46.836;16.820;2024-02-21T00:51:30;3.45;;;2.15;;
64467;SDS011;50853;46.836;16.820;2024-02-21T00:53:55;2.83;;;1.90;;
64467;SDS011;50853;46.836;16.820;2024-02-21T00:56:21;3.38;;;2.10;;
64467;SDS011;50853;46.836;16.820;2024-02-21T00:58:47;3.35;;;1.90;;
64467;SDS011;50853;46.836;16.820;2024-02-21T01:01:13;2.78;;;1.92;;
64467;SDS011;50853;46.836;16.820;2024-02-21T01:03:46;2.95;;;1.90;;
64467;SDS011;50853;46.836;16.820;2024-02-21T01:06:11;3.40;;;2.00;;
64467;SDS011;50853;46.836;16.820;2024-02-21T01:08:37;2.30;;;1.73;;
64467;SDS011;50853;46.836;16.820;2024-02-21T01:11:03;3.67;;;1.90;;
64467;SDS011;50853;46.836;16.820;2024-02-21T01:13:29;2.50;;;1.63;;
64467;SDS011;50853;46.836;16.820;2024-02-21T01:15:54;3.05;;;1.75;;
64467;SDS011;50853;46.836;16.820;2024-02-21T01:18:20;2.67;;;1.98;;
64467;SDS011;50853;46.836;16.820;2024-02-21T01:20:46;2.70;;;1.70;;
64467;SDS011;50853;46.836;16.820;2024-02-21T01:23:12;2.70;;;1.80;;
64467;SDS011;50853;46.836;16.820;2024-02-21T01:25:38;3.15;;;1.80;;
64467;SDS011;50853;46.836;16.820;2024-02-21T01:28:03;2.78;;;1.83;;
64467;SDS011;50853;46.836;16.820;2024-02-21T01:30:29;2.50;;;1.58;;
64467;SDS011;50853;46.836;16.820;2024-02-21T01:32:55;2.65;;;1.90;;
64467;SDS011;50853;46.836;16.820;2024-02-21T01:35:21;2.35;;;1.70;;
64467;SDS011;50853;46.836;16.820;2024-02-21T01:37:47;2.72;;;1.80;;
64467;SDS011;50853;46.836;16.820;2024-02-21T01:40:14;3.85;;;1.95;;
64467;SDS011;50853;46.836;16.820;2024-02-21T01:42:40;3.58;;;2.00;;
64467;SDS011;50853;46.836;16.820;2024-02-21T01:45:06;2.70;;;1.95;;
64467;SDS011;50853;46.836;16.820;2024-02-21T01:47:32;2.63;;;1.75;;
64467;SDS011;50853;46.836;16.820;2024-02-21T01:49:58;2.30;;;1.67;;
64467;SDS011;50853;46.836;16.820;2024-02-21T01:52:24;2.38;;;1.55;;
64467;SDS011;50853;46.836;16.820;2024-02-21T01:54:50;2.95;;;1.90;;
64467;SDS011;50853;46.836;16.820;2024-02-21T01:57:16;2.45;;;1.80;;
64467;SDS011;50853;46.836;16.820;2024-02-21T01:59:42;4.05;;;1.70;;
64467;SDS011;50853;46.836;16.820;2024-02-21T02:02:08;3.17;;;1.80;;
64467;SDS011;50853;46.836;16.820;2024-02-21T02:04:34;3.03;;;1.80;;
64467;SDS011;50853;46.836;16.820;2024-02-21T02:07:01;3.77;;;1.90;;
64467;SDS011;50853;46.836;16.820;2024-02-21T02:09:30;2.60;;;1.80;;
64467;SDS011;50853;46.836;16.820;2024-02-21T02:11:56;3.28;;;2.08;;
64467;SDS011;50853;46.836;16.820;2024-02-21T02:14:23;2.58;;;1.55;;
64467;SDS011;50853;46.836;16.820;2024-02-21T02:16:49;3.33;;;2.00;;
64467;SDS011;50853;46.836;16.820;2024-02-21T02:19:15;2.72;;;1.70;;
64467;SDS011;50853;46.836;16.820;2024-02-21T02:21:42;2.47;;;1.70;;
64467;SDS011;50853;46.836;16.820;2024-02-21T02:24:21;2.78;;;1.80;;
64467;SDS011;50853;46.836;16.820;2024-02-21T02:26:51;4.18;;;1.60;;
64467;SDS011;50853;46.836;16.820;2024-02-21T02:29:16;3.33;;;1.83;;
64467;SDS011;50853;46.836;16.820;2024-02-21T02:31:42;3.88;;;1.60;;
64467;SDS011;50853;46.836;16.820;2024-02-21T02:34:08;2.83;;;1.70;;
64467;SDS011;50853;46.836;16.820;2024-02-21T02:36:35;2.95;;;1.60;;
64467;SDS011;50853;46.836;16.820;2024-02-21T02:39:01;3.15;;;1.85;;
64467;SDS011;50853;46.836;16.820;2024-02-21T02:41:27;3.20;;;1.98;;
64467;SDS011;50853;46.836;16.820;2024-02-21T02:43:52;2.90;;;1.75;;
64467;SDS011;50853;46.836;16.820;2024-02-21T02:46:18;2.15;;;1.25;;
64467;SDS011;50853;46.836;16.820;2024-02-21T02:48:44;2.83;;;1.80;;
64467;SDS011;50853;46.836;16.820;2024-02-21T02:51:10;3.42;;;1.80;;
64467;SDS011;50853;46.836;16.820;2024-02-21T02:53:36;3.22;;;1.80;;
64467;SDS011;50853;46.836;16.820;2024-02-21T02:56:02;2.88;;;1.70;;
64467;SDS011;50853;46.836;16.820;2024-02-21T02:58:28;3.15;;;1.98;;
64467;SDS011;50853;46.836;16.820;2024-02-21T03:00:54;3.17;;;1.80;;
64467;SDS011;50853;46.836;16.820;2024-02-21T03:03:19;2.88;;;1.75;;
64467;SDS011;50853;46.836;16.820;2024-02-21T03:05:45;2.85;;;1.52;;
64467;SDS011;50853;46.836;16.820;2024-02-21T03:08:11;3.20;;;1.75;;
64467;SDS011;50853;46.836;16.820;2024-02-21T03:10:37;2.50;;;1.55;;
64467;SDS011;50853;46.836;16.820;2024-02-21T03:13:03;2.35;;;1.50;;
64467;SDS011;50853;46.836;16.820;2024-02-21T03:15:29;2.67;;;1.63;;
64467;SDS011;50853;46.836;16.820;2024-02-21T03:17:55;2.70;;;1.75;;
64467;SDS011;50853;46.836;16.820;2024-02-21T03:20:20;2.92;;;1.88;;
64467;SDS011;50853;46.836;16.820;2024-02-21T03:22:47;2.95;;;1.65;;
64467;SDS011;50853;46.836;16.820;2024-02-21T03:25:13;3.00;;;1.88;;
64467;SDS011;50853;46.836;16.820;2024-02-21T03:27:40;2.70;;;1.75;;
64467;SDS011;50853;46.836;16.820;2024-02-21T03:30:06;3.67;;;1.80;;
64467;SDS011;50853;46.836;16.820;2024-02-21T03:32:32;2.45;;;1.60;;
64467;SDS011;50853;46.836;16.820;2024-02-21T03:34:58;3.40;;;1.83;;
64467;SDS011;50853;46.836;16.820;2024-02-21T03:37:23;3.10;;;1.80;;
64467;SDS011;50853;46.836;16.820;2024-02-21T03:39:49;2.38;;;1.42;;
64467;SDS011;50853;46.836;16.820;2024-02-21T03:42:15;2.65;;;1.75;;
64467;SDS011;50853;46.836;16.820;2024-02-21T03:44:41;2.53;;;1.77;;
64467;SDS011;50853;46.836;16.820;2024-02-21T03:47:06;2.63;;;1.63;;
64467;SDS011;50853;46.836;16.820;2024-02-21T03:49:36;2.83;;;1.65;;
64467;SDS011;50853;46.836;16.820;2024-02-21T03:52:02;3.47;;;1.80;;
64467;SDS011;50853;46.836;16.820;2024-02-21T03:54:28;3.42;;;1.98;;
64467;SDS011;50853;46.836;16.820;2024-02-21T03:56:54;2.67;;;1.77;;
64467;SDS011;50853;46.836;16.820;2024-02-21T03:59:20;2.80;;;1.85;;
64467;SDS011;50853;46.836;16.820;2024-02-21T04:01:50;3.10;;;1.73;;
64467;SDS011;50853;46.836;16.820;2024-02-21T04:04:17;2.13;;;1.45;;
64467;SDS011;50853;46.836;16.820;2024-02-21T04:06:47;2.85;;;1.77;;
64467;SDS011;50853;46.836;16.820;2024-02-21T04:09:13;4.57;;;1.80;;
64467;SDS011;50853;46.836;16.820;2024-02-21T04:11:39;2.92;;;1.70;;
64467;SDS011;50853;46.836;16.820;2024-02-21T04:14:05;2.05;;;1.38;;
64467;SDS011;50853;46.836;16.820;2024-02-21T04:16:32;2.42;;;1.45;;
64467;SDS011;50853;46.836;16.820;2024-02-21T04:18:58;2.90;;;1.75;;
64467;SDS011;50853;46.836;16.820;2024-02-21T04:21:24;2.22;;;1.60;;
64467;SDS011;50853;46.836;16.820;2024-02-21T04:23:50;2.70;;;1.63;;
64467;SDS011;50853;46.836;16.820;2024-02-21T04:26:16;2.50;;;1.60;;
64467;SDS011;50853;46.836;16.820;2024-02-21T04:28:42;2.15;;;1.50;;
64467;SDS011;50853;46.836;16.820;2024-02-21T04:31:10;3.30;;;1.75;;
64467;SDS011;50853;46.836;16.820;2024-02-21T04:33:35;3.03;;;1.63;;
64467;SDS011;50853;46.836;16.820;2024-02-21T04:36:01;2.28;;;1.60;;
64467;SDS011;50853;46.836;16.820;2024-02-21T04:38:31;2.30;;;1.55;;
64467;SDS011;50853;46.836;16.820;2024-02-21T04:40:56;2.70;;;1.70;;
64467;SDS011;50853;46.836;16.820;2024-02-21T04:43:24;2.40;;;1.60;;
64467;SDS011;50853;46.836;16.820;2024-02-21T04:45:50;2.67;;;1.40;;
64467;SDS011;50853;46.836;16.820;2024-02-21T04:48:16;2.78;;;1.40;;
64467;SDS011;50853;46.836;16.820;2024-02-21T04:50:41;2.28;;;1.73;;
64467;SDS011;50853;46.836;16.820;2024-02-21T04:53:07;2.55;;;1.50;;
64467;SDS011;50853;46.836;16.820;2024-02-21T04:55:33;2.80;;;1.63;;
64467;SDS011;50853;46.836;16.820;2024-02-21T04:57:59;2.78;;;1.67;;
64467;SDS011;50853;46.836;16.820;2024-02-21T05:00:27;2.20;;;1.48;;
64467;SDS011;50853;46.836;16.820;2024-02-21T05:02:53;2.97;;;1.70;;
64467;SDS011;50853;46.836;16.820;2024-02-21T05:05:19;2.60;;;1.50;;
64467;SDS011;50853;46.836;16.820;2024-02-21T05:07:45;2.83;;;1.58;;
64467;SDS011;50853;46.836;16.820;2024-02-21T05:10:10;2.10;;;1.38;;
64467;SDS011;50853;46.836;16.820;2024-02-21T05:12:36;2.60;;;1.70;;
64467;SDS011;50853;46.836;16.820;2024-02-21T05:15:02;3.47;;;1.42;;
64467;SDS011;50853;46.836;16.820;2024-02-21T05:17:29;2.28;;;1.55;;
64467;SDS011;50853;46.836;16.820;2024-02-21T05:19:54;2.58;;;1.70;;
64467;SDS011;50853;46.836;16.820;2024-02-21T05:22:20;2.80;;;1.67;;
64467;SDS011;50853;46.836;16.820;2024-02-21T05:24:46;2.20;;;1.50;;
64467;SDS011;50853;46.836;16.820;2024-02-21T05:27:12;2.70;;;1.50;;
64467;SDS011;50853;46.836;16.820;2024-02-21T05:29:37;2.50;;;1.75;;
64467;SDS011;50853;46.836;16.820;2024-02-21T05:32:03;2.17;;;1.52;;
64467;SDS011;50853;46.836;16.820;2024-02-21T05:34:29;2.53;;;1.40;;
64467;SDS011;50853;46.836;16.820;2024-02-21T05:36:55;2.50;;;1.65;;
64467;SDS011;50853;46.836;16.820;2024-02-21T05:39:22;2.58;;;1.50;;
64467;SDS011;50853;46.836;16.820;2024-02-21T05:41:49;2.45;;;1.50;;
64467;SDS011;50853;46.836;16.820;2024-02-21T05:44:15;2.70;;;1.70;;
64467;SDS011;50853;46.836;16.820;2024-02-21T05:46:42;2.70;;;1.60;;
64467;SDS011;50853;46.836;16.820;2024-02-21T05:49:08;2.83;;;1.58;;
64467;SDS011;50853;46.836;16.820;2024-02-21T05:51:34;2.30;;;1.40;;
64467;SDS011;50853;46.836;16.820;2024-02-21T05:54:00;1.63;;;1.23;;
64467;SDS011;50853;46.836;16.820;2024-02-21T05:56:26;2.65;;;1.60;;
64467;SDS011;50853;46.836;16.820;2024-02-21T05:58:52;2.55;;;1.48;;
64467;SDS011;50853;46.836;16.820;2024-02-21T06:01:18;2.85;;;1.92;;
64467;SDS011;50853;46.836;16.820;2024-02-21T06:03:43;3.20;;;1.90;;
64467;SDS011;50853;46.836;16.820;2024-02-21T06:06:09;2.45;;;1.48;;
64467;SDS011;50853;46.836;16.820;2024-02-21T06:08:35;2.42;;;1.50;;
64467;SDS011;50853;46.836;16.820;2024-02-21T06:11:01;3.50;;;1.95;;
64467;SDS011;50853;46.836;16.820;2024-02-21T06:13:27;2.85;;;1.67;;
64467;SDS011;50853;46.836;16.820;2024-02-21T06:15:53;2.50;;;1.42;;
64467;SDS011;50853;46.836;16.820;2024-02-21T06:18:19;2.53;;;1.67;;
64467;SDS011;50853;46.836;16.820;2024-02-21T06:20:45;2.63;;;1.65;;
64467;SDS011;50853;46.836;16.820;2024-02-21T06:23:12;2.40;;;1.63;;
64467;SDS011;50853;46.836;16.820;2024-02-21T06:25:38;2.50;;;1.50;;
64467;SDS011;50853;46.836;16.820;2024-02-21T06:28:05;2.67;;;1.73;;
64467;SDS011;50853;46.836;16.820;2024-02-21T06:30:31;3.33;;;1.55;;
64467;SDS011;50853;46.836;16.820;2024-02-21T06:32:57;2.05;;;1.58;;
64467;SDS011;50853;46.836;16.820;2024-02-21T06:35:24;1.48;;;1.10;;
64467;SDS011;50853;46.836;16.820;2024-02-21T06:37:53;2.00;;;1.40;;
64467;SDS011;50853;46.836;16.820;2024-02-21T06:40:22;2.50;;;1.45;;
64467;SDS011;50853;46.836;16.820;2024-02-21T06:42:48;3.15;;;2.05;;
64467;SDS011;50853;46.836;16.820;2024-02-21T06:45:14;2.80;;;1.70;;
64467;SDS011;50853;46.836;16.820;2024-02-21T06:47:41;2.97;;;1.70;;
64467;SDS011;50853;46.836;16.820;2024-02-21T06:50:07;3.65;;;1.90;;
64467;SDS011;50853;46.836;16.820;2024-02-21T06:52:34;2.33;;;1.33;;
64467;SDS011;50853;46.836;16.820;2024-02-21T06:55:00;2.28;;;1.52;;
64467;SDS011;50853;46.836;16.820;2024-02-21T06:57:26;2.72;;;1.45;;
64467;SDS011;50853;46.836;16.820;2024-02-21T06:59:51;4.32;;;1.40;;
64467;SDS011;50853;46.836;16.820;2024-02-21T07:02:17;2.63;;;1.70;;
64467;SDS011;50853;46.836;16.820;2024-02-21T07:04:43;3.40;;;1.70;;
64467;SDS011;50853;46.836;16.820;2024-02-21T07:07:09;2.10;;;1.40;;
64467;SDS011;50853;46.836;16.820;2024-02-21T07:09:35;2.30;;;1.45;;
64467;SDS011;50853;46.836;16.820;2024-02-21T07:12:01;2.28;;;1.30;;
64467;SDS011;50853;46.836;16.820;2024-02-21T07:14:29;3.72;;;1.77;;
64467;SDS011;50853;46.836;16.820;2024-02-21T07:29:04;2.65;;;1.60;;
64467;SDS011;50853;46.836;16.820;2024-02-21T07:31:29;3.47;;;1.67;;
64467;SDS011;50853;46.836;16.820;2024-02-21T07:33:55;2.30;;;1.30;;
64467;SDS011;50853;46.836;16.820;2024-02-21T07:36:30;2.55;;;1.60;;
64467;SDS011;50853;46.836;16.820;2024-02-21T07:38:56;2.85;;;1.50;;
64467;SDS011;50853;46.836;16.820;2024-02-21T07:41:22;2.50;;;1.50;;
64467;SDS011;50853;46.836;16.820;2024-02-21T07:43:47;2.88;;;1.50;;
64467;SDS011;50853;46.836;16.820;2024-02-21T07:46:13;2.50;;;1.45;;
64467;SDS011;50853;46.836;16.820;2024-02-21T07:48:39;2.95;;;1.60;;
64467;SDS011;50853;46.836;16.820;2024-02-21T07:51:05;2.42;;;1.45;;
64467;SDS011;50853;46.836;16.820;2024-02-21T07:53:31;2.30;;;1.40;;
64467;SDS011;50853;46.836;16.820;2024-02-21T07:55:57;2.53;;;1.70;;
64467;SDS011;50853;46.836;16.820;2024-02-21T07:58:23;2.92;;;1.52;;
64467;SDS011;50853;46.836;16.820;2024-02-21T08:00:48;2.15;;;1.48;;
64467;SDS011;50853;46.836;16.820;2024-02-21T08:03:14;2.53;;;1.45;;
64467;SDS011;50853;46.836;16.820;2024-02-21T08:05:43;2.30;;;1.50;;
64467;SDS011;50853;46.836;16.820;2024-02-21T08:10:35;2.30;;;1.50;;
64467;SDS011;50853;46.836;16.820;2024-02-21T08:13:01;2.13;;;1.40;;
64467;SDS011;50853;46.836;16.820;2024-02-21T08:15:27;2.67;;;1.73;;
64467;SDS011;50853;46.836;16.820;2024-02-21T08:17:55;2.55;;;1.60;;
64467;SDS011;50853;46.836;16.820;2024-02-21T08:20:24;2.83;;;1.67;;
64467;SDS011;50853;46.836;16.820;2024-02-21T08:22:51;3.20;;;1.67;;
64467;SDS011;50853;46.836;16.820;2024-02-21T08:25:16;3.00;;;1.33;;
64467;SDS011;50853;46.836;16.820;2024-02-21T08:27:42;2.33;;;1.23;;
64467;SDS011;50853;46.836;16.820;2024-02-21T08:30:09;2.17;;;1.40;;
64467;SDS011;50853;46.836;16.820;2024-02-21T08:32:36;2.72;;;1.60;;
64467;SDS011;50853;46.836;16.820;2024-02-21T08:35:02;3.40;;;1.60;;
64467;SDS011;50853;46.836;16.820;2024-02-21T08:37:28;2.20;;;1.45;;
64467;SDS011;50853;46.836;16.820;2024-02-21T08:39:54;2.38;;;1.48;;
64467;SDS011;50853;46.836;16.820;2024-02-21T08:42:20;2.70;;;1.50;;
64467;SDS011;50853;46.836;16.820;2024-02-21T08:44:45;2.88;;;1.52;;
64467;SDS011;50853;46.836;16.820;2024-02-21T08:47:11;3.33;;;1.77;;
64467;SDS011;50853;46.836;16.820;2024-02-21T08:49:37;2.60;;;1.50;;
64467;SDS011;50853;46.836;16.820;2024-02-21T08:52:03;5.20;;;1.77;;
64467;SDS011;50853;46.836;16.820;2024-02-21T08:54:30;2.58;;;1.55;;
64467;SDS011;50853;46.836;16.820;2024-02-21T08:56:58;2.20;;;1.33;;
64467;SDS011;50853;46.836;16.820;2024-02-21T08:59:23;2.97;;;1.48;;
64467;SDS011;50853;46.836;16.820;2024-02-21T09:01:51;2.40;;;1.38;;
64467;SDS011;50853;46.836;16.820;2024-02-21T09:04:20;2.58;;;1.58;;
64467;SDS011;50853;46.836;16.820;2024-02-21T09:06:45;2.53;;;1.58;;
64467;SDS011;50853;46.836;16.820;2024-02-21T09:09:11;2.65;;;1.58;;
64467;SDS011;50853;46.836;16.820;2024-02-21T09:11:37;1.90;;;1.30;;
64467;SDS011;50853;46.836;16.820;2024-02-21T09:14:05;1.90;;;1.35;;
64467;SDS011;50853;46.836;16.820;2024-02-21T09:16:33;2.28;;;1.70;;
64467;SDS011;50853;46.836;16.820;2024-02-21T09:18:59;2.35;;;1.52;;
64467;SDS011;50853;46.836;16.820;2024-02-21T09:21:25;2.40;;;1.45;;
64467;SDS011;50853;46.836;16.820;2024-02-21T09:26:18;2.50;;;1.40;;
64467;SDS011;50853;46.836;16.820;2024-02-21T09:28:44;1.88;;;1.40;;
64467;SDS011;50853;46.836;16.820;2024-02-21T09:31:10;2.30;;;1.50;;
64467;SDS011;50853;46.836;16.820;2024-02-21T09:33:36;2.97;;;1.77;;
64467;SDS011;50853;46.836;16.820;2024-02-21T09:36:02;3.28;;;1.95;;
64467;SDS011;50853;46.836;16.820;2024-02-21T09:38:31;3.70;;;1.60;;
64467;SDS011;50853;46.836;16.820;2024-02-21T09:41:04;2.90;;;1.67;;
64467;SDS011;50853;46.836;16.820;2024-02-21T09:43:43;2.40;;;1.48;;
64467;SDS011;50853;46.836;16.820;2024-02-21T09:46:17;2.47;;;1.60;;
64467;SDS011;50853;46.836;16.820;2024-02-21T09:51:22;3.30;;;1.70;;
64467;SDS011;50853;46.836;16.820;2024-02-21T09:53:48;3.10;;;1.80;;
64467;SDS011;50853;46.836;16.820;2024-02-21T09:58:41;2.80;;;1.70;;
64467;SDS011;50853;46.836;16.820;2024-02-21T10:01:07;2.88;;;1.50;;
64467;SDS011;50853;46.836;16.820;2024-02-21T10:03:33;3.65;;;1.95;;
64467;SDS011;50853;46.836;16.820;2024-02-21T10:05:59;2.95;;;1.70;;
64467;SDS011;50853;46.836;16.820;2024-02-21T10:08:26;3.20;;;1.83;;
64467;SDS011;50853;46.836;16.820;2024-02-21T10:10:52;3.53;;;1.88;;
64467;SDS011;50853;46.836;16.820;2024-02-21T10:13:27;2.78;;;1.50;;
64467;SDS011;50853;46.836;16.820;2024-02-21T10:16:27;3.38;;;1.98;;
64467;SDS011;50853;46.836;16.820;2024-02-21T10:18:46;3.75;;;2.08;;
64467;SDS011;50853;46.836;16.820;2024-02-21T10:21:12;2.53;;;1.73;;
64467;SDS011;50853;46.836;16.820;2024-02-21T10:23:45;3.15;;;1.70;;
64467;SDS011;50853;46.836;16.820;2024-02-21T10:26:12;2.80;;;1.77;;
64467;SDS011;50853;46.836;16.820;2024-02-21T10:28:39;2.72;;;1.60;;
64467;SDS011;50853;46.836;16.820;2024-02-21T10:31:10;2.58;;;1.65;;
64467;SDS011;50853;46.836;16.820;2024-02-21T10:33:37;3.63;;;1.70;;
64467;SDS011;50853;46.836;16.820;2024-02-21T10:36:06;2.70;;;1.58;;
64467;SDS011;50853;46.836;16.820;2024-02-21T10:38:36;3.85;;;2.05;;
64467;SDS011;50853;46.836;16.820;2024-02-21T10:41:03;3.22;;;1.80;;
64467;SDS011;50853;46.836;16.820;2024-02-21T10:43:39;2.50;;;1.65;;
64467;SDS011;50853;46.836;16.820;2024-02-21T10:46:09;2.97;;;1.90;;
64467;SDS011;50853;46.836;16.820;2024-02-21T10:48:42;2.97;;;1.70;;
64467;SDS011;50853;46.836;16.820;2024-02-21T10:51:15;3.78;;;1.90;;
64467;SDS011;50853;46.836;16.820;2024-02-21T10:56:30;2.88;;;1.58;;
64467;SDS011;50853;46.836;16.820;2024-02-21T10:59:02;2.45;;;1.60;;
64467;SDS011;50853;46.836;16.820;2024-02-21T11:01:32;3.17;;;1.70;;
64467;SDS011;50853;46.836;16.820;2024-02-21T11:04:10;3.53;;;1.63;;
64467;SDS011;50853;46.836;16.820;2024-02-21T11:06:38;2.67;;;1.40;;
64467;SDS011;50853;46.836;16.820;2024-02-21T11:09:09;3.30;;;1.63;;
64467;SDS011;50853;46.836;16.820;2024-02-21T11:11:37;2.10;;;1.50;;
64467;SDS011;50853;46.836;16.820;2024-02-21T11:16:44;4.57;;;1.55;;
64467;SDS011;50853;46.836;16.820;2024-02-21T11:19:21;3.22;;;1.92;;
64467;SDS011;50853;46.836;16.820;2024-02-21T11:21:47;3.90;;;1.70;;
64467;SDS011;50853;46.836;16.820;2024-02-21T11:24:14;2.53;;;1.52;;
64467;SDS011;50853;46.836;16.820;2024-02-21T11:29:43;3.47;;;1.85;;
64467;SDS011;50853;46.836;16.820;2024-02-21T11:32:29;2.72;;;1.58;;
64467;SDS011;50853;46.836;16.820;2024-02-21T11:37:26;3.20;;;1.50;;
64467;SDS011;50853;46.836;16.820;2024-02-21T11:39:53;2.20;;;1.48;;
64467;SDS011;50853;46.836;16.820;2024-02-21T11:42:22;3.03;;;1.70;;
64467;SDS011;50853;46.836;16.820;2024-02-21T11:44:54;2.05;;;1.40;;
64467;SDS011;50853;46.836;16.820;2024-02-21T11:47:24;2.25;;;1.40;;
64467;SDS011;50853;46.836;16.820;2024-02-21T11:49:50;1.73;;;1.23;;
64467;SDS011;50853;46.836;16.820;2024-02-21T11:52:22;2.25;;;1.30;;
64467;SDS011;50853;46.836;16.820;2024-02-21T11:54:52;2.90;;;1.60;;
64467;SDS011;50853;46.836;16.820;2024-02-21T11:57:20;3.33;;;1.85;;
64467;SDS011;50853;46.836;16.820;2024-02-21T11:59:46;3.22;;;1.77;;
64467;SDS011;50853;46.836;16.820;2024-02-21T12:02:12;3.85;;;1.90;;
64467;SDS011;50853;46.836;16.820;2024-02-21T12:07:05;2.72;;;1.60;;
64467;SDS011;50853;46.836;16.820;2024-02-21T12:09:31;2.00;;;1.30;;
64467;SDS011;50853;46.836;16.820;2024-02-21T12:14:26;2.15;;;1.45;;
64467;SDS011;50853;46.836;16.820;2024-02-21T12:16:53;2.40;;;1.45;;
64467;SDS011;50853;46.836;16.820;2024-02-21T12:19:20;2.20;;;1.43;;
64467;SDS011;50853;46.836;16.820;2024-02-21T12:21:47;3.10;;;1.63;;
64467;SDS011;50853;46.836;16.820;2024-02-21T12:24:15;2.15;;;1.30;;
64467;SDS011;50853;46.836;16.820;2024-02-21T12:26:41;4.00;;;1.57;;
64467;SDS011;50853;46.836;16.820;2024-02-21T12:29:07;2.35;;;1.50;;
64467;SDS011;50853;46.836;16.820;2024-02-21T12:31:37;2.45;;;1.65;;
64467;SDS011;50853;46.836;16.820;2024-02-21T12:34:03;4.75;;;1.40;;
64467;SDS011;50853;46.836;16.820;2024-02-21T12:36:33;3.13;;;1.40;;
64467;SDS011;50853;46.836;16.820;2024-02-21T12:39:01;3.80;;;1.38;;
64467;SDS011;50853;46.836;16.820;2024-02-21T12:41:29;2.10;;;1.30;;
64467;SDS011;50853;46.836;16.820;2024-02-21T12:43:57;2.10;;;1.20;;
64467;SDS011;50853;46.836;16.820;2024-02-21T12:46:23;2.20;;;1.60;;
64467;SDS011;50853;46.836;16.820;2024-02-21T12:48:49;2.63;;;1.42;;
64467;SDS011;50853;46.836;16.820;2024-02-21T12:51:15;2.50;;;1.47;;
64467;SDS011;50853;46.836;16.820;2024-02-21T12:53:46;2.22;;;1.20;;
64467;SDS011;50853;46.836;16.820;2024-02-21T12:56:15;1.42;;;1.00;;
64467;SDS011;50853;46.836;16.820;2024-02-21T12:58:41;2.45;;;1.35;;
64467;SDS011;50853;46.836;16.820;2024-02-21T13:01:07;2.28;;;1.30;;
64467;SDS011;50853;46.836;16.820;2024-02-21T13:03:33;2.50;;;1.30;;
64467;SDS011;50853;46.836;16.820;2024-02-21T13:05:59;2.05;;;1.20;;
64467;SDS011;50853;46.836;16.820;2024-02-21T13:08:25;2.03;;;1.10;;
64467;SDS011;50853;46.836;16.820;2024-02-21T13:10:50;2.78;;;1.20;;
64467;SDS011;50853;46.836;16.820;2024-02-21T13:13:16;2.03;;;1.23;;
64467;SDS011;50853;46.836;16.820;2024-02-21T13:15:43;1.77;;;1.13;;
64467;SDS011;50853;46.836;16.820;2024-02-21T13:18:09;2.22;;;1.40;;
64467;SDS011;50853;46.836;16.820;2024-02-21T13:20:36;2.85;;;1.40;;
64467;SDS011;50853;46.836;16.820;2024-02-21T13:23:02;1.85;;;1.20;;
64467;SDS011;50853;46.836;16.820;2024-02-21T13:25:28;2.10;;;1.10;;
64467;SDS011;50853;46.836;16.820;2024-02-21T13:27:54;2.53;;;1.33;;
64467;SDS011;50853;46.836;16.820;2024-02-21T13:30:21;3.55;;;1.40;;
64467;SDS011;50853;46.836;16.820;2024-02-21T13:32:47;2.55;;;1.20;;
64467;SDS011;50853;46.836;16.820;2024-02-21T13:35:13;4.28;;;1.20;;
64467;SDS011;50853;46.836;16.820;2024-02-21T13:37:40;1.87;;;1.10;;
64467;SDS011;50853;46.836;16.820;2024-02-21T13:40:07;1.73;;;1.00;;
64467;SDS011;50853;46.836;16.820;2024-02-21T13:42:36;2.42;;;1.10;;
64467;SDS011;50853;46.836;16.820;2024-02-21T13:45:03;1.85;;;1.20;;
64467;SDS011;50853;46.836;16.820;2024-02-21T13:47:30;2.38;;;1.25;;
64467;SDS011;50853;46.836;16.820;2024-02-21T13:49:57;1.88;;;1.20;;
64467;SDS011;50853;46.836;16.820;2024-02-21T13:52:23;2.33;;;1.27;;
64467;SDS011;50853;46.836;16.820;2024-02-21T13:54:51;1.80;;;1.20;;
64467;SDS011;50853;46.836;16.820;2024-02-21T13:57:18;2.45;;;1.33;;
64467;SDS011;50853;46.836;16.820;2024-02-21T13:59:43;2.40;;;1.20;;
64467;SDS011;50853;46.836;16.820;2024-02-21T14:02:09;2.45;;;1.25;;
64467;SDS011;50853;46.836;16.820;2024-02-21T14:04:35;2.00;;;1.15;;
64467;SDS011;50853;46.836;16.820;2024-02-21T14:07:01;1.90;;;1.27;;
64467;SDS011;50853;46.836;16.820;2024-02-21T14:09:27;1.83;;;1.17;;
64467;SDS011;50853;46.836;16.820;2024-02-21T14:11:56;3.40;;;1.30;;
64467;SDS011;50853;46.836;16.820;2024-02-21T14:14:21;1.95;;;1.30;;
64467;SDS011;50853;46.836;16.820;2024-02-21T14:16:47;2.42;;;1.27;;
64467;SDS011;50853;46.836;16.820;2024-02-21T14:19:13;4.05;;;1.23;;
64467;SDS011;50853;46.836;16.820;2024-02-21T14:21:39;2.55;;;1.60;;
64467;SDS011;50853;46.836;16.820;2024-02-21T14:24:05;2.28;;;1.30;;
64467;SDS011;50853;46.836;16.820;2024-02-21T14:26:32;2.65;;;1.35;;
64467;SDS011;50853;46.836;16.820;2024-02-21T14:28:58;3.70;;;1.60;;
64467;SDS011;50853;46.836;16.820;2024-02-21T14:31:24;1.90;;;1.15;;
64467;SDS011;50853;46.836;16.820;2024-02-21T14:33:53;1.70;;;1.13;;
64467;SDS011;50853;46.836;16.820;2024-02-21T14:36:19;2.00;;;1.30;;
64467;SDS011;50853;46.836;16.820;2024-02-21T14:38:44;3.00;;;1.50;;
64467;SDS011;50853;46.836;16.820;2024-02-21T14:41:10;3.00;;;1.50;;
64467;SDS011;50853;46.836;16.820;2024-02-21T14:43:39;2.45;;;1.48;;
64467;SDS011;50853;46.836;16.820;2024-02-21T14:46:05;2.92;;;1.60;;
64467;SDS011;50853;46.836;16.820;2024-02-21T14:48:31;2.72;;;1.48;;
64467;SDS011;50853;46.836;16.820;2024-02-21T14:50:57;3.00;;;1.70;;
64467;SDS011;50853;46.836;16.820;2024-02-21T14:53:23;2.93;;;1.70;;
64467;SDS011;50853;46.836;16.820;2024-02-21T14:55:50;3.35;;;1.80;;
64467;SDS011;50853;46.836;16.820;2024-02-21T14:58:19;6.38;;;2.10;;
64467;SDS011;50853;46.836;16.820;2024-02-21T15:00:45;13.82;;;3.13;;
64467;SDS011;50853;46.836;16.820;2024-02-21T15:03:15;9.18;;;2.45;;
64467;SDS011;50853;46.836;16.820;2024-02-21T15:05:45;9.90;;;4.95;;
64467;SDS011;50853;46.836;16.820;2024-02-21T15:08:13;11.25;;;3.50;;